x

Port Orford - 15 Nm West Of Port Orford, Or (46015) Wave Buoy

2:50pm - Fri 25th Jul 2014 All times are PDT. -7 hours from GMT.

  • Sig Wave height 4.6ft
  • Swell Direction
  • Peak Period 5s
  • Average Period 5s
  • Wind
    20mph, 25mph gusts
  • Sea Temp 53°f
  • Air Temp 56°f
  • Sea Pressure 1018.8mb
  • Port Orford - 15 Nm West Of Port Orford, Or
  • Port Orford - 15 Nm West Of Port Orford, Or

More Historic Weather Station data

Upgrade to MSW Pro to gain access to the past 30 days of data for over 8000 Wavebouys and Weather Stations around the globe.

Join Pro

Comparision Forecast

View Surf forecast
   
Fri 07/25 2:50pm 4.5ft 5s 5s 20 25 mph 1018.8mb 53f 56f
1:50pm 5ft 8s 5s 22 27 mph 1018.8mb 53f 56f
12:50pm 5ft 7s 5s 22 25 mph 1019.1mb 53f 56f
11:50am 5ft 8s 5s 22 27 mph 1018.9mb 53f 56f
10:50am 5ft 8s 5s 22 27 mph 1019mb 52f 55f
9:50am 5ft 5s 5s 22 25 mph 1019mb 52f 55f
8:50am 5ft 8s 5s 20 25 mph 1019.2mb 52f 55f
7:50am 5.5ft 8s 5s 22 27 mph 1019mb 52f 55f
6:50am 5.5ft 8s 5s 22 27 mph 1018.9mb 52f 55f
5:50am 5.5ft 8s 5s 22 25 mph 1019.1mb 52f 55f
4:50am 6ft 8s 5s 20 22 mph 1019.3mb 52f 55f
3:50am 6ft 8s 5s 22 25 mph 1019.2mb 52f 55f
2:50am 6ft 8s 6s 22 27 mph 1019.4mb 52f 55f
1:50am 6ft 8s 5s 22 27 mph 1019.8mb 53f 56f
12:50am 6ft 8s 6s 22 27 mph 1020.2mb 53f 56f
Thu 07/24 11:50pm 6.5ft 9s 6s 22 25 mph 1020.4mb 54f 56f
10:50pm 6.5ft 9s 6s 22 27 mph 1020.9mb 55f 56f
9:50pm 7ft 8s 6s 22 27 mph 1021mb 55f 56f
8:50pm 7.5ft 9s 6s 22 27 mph 1020.8mb 55f 57f
6:50pm 8ft 9s 6s 25 31 mph 1020.8mb 56f 58f
5:50pm 7.5ft 9s 6s 22 27 mph 1021.4mb 55f 58f
4:50pm 7ft 9s 6s 22 27 mph 1021.9mb 54f 58f
3:50pm 7.5ft 10s 7s 20 25 mph 1022.8mb 55f 58f
2:50pm 8ft 10s 8s 20 22 mph 1023.7mb 56f 58f
1:50pm 8ft 10s 8s 16 18 mph 1024.4mb 56f 58f
12:50pm 9ft 9s 8s 13 16 mph 1025mb 57f 59f
11:50am 8ft 10s 8s 9 11 mph 1025.2mb 57f 58f
10:50am 5ft 10s 8s 9
mph
1025.2mb 57f 57f
9:50am 5.5ft 9s 8s 9
mph
1025.2mb 57f 56f
8:50am 4.5ft 8s 7s 7
mph
1025.3mb 56f 57f
7:50am 4ft 8s 7s 4
mph
1025.2mb 56f 56f
6:50am 4ft 7s 6s 4 7 mph 1025mb 56f 56f
5:50am 3.5ft 8s 6s 4 7 mph 1024.9mb 56f 56f
4:50am 3.5ft 9s 6s 4
mph
1025mb 56f 55f
3:50am 3.5ft 6s 6s 4
mph
1024.9mb 56f 56f
2:50am 4ft 8s 6s 4 7 mph 1024.8mb 55f 56f
1:50am 4ft 8s 6s 4
mph
1024.7mb 56f 56f
12:50am 4ft 8s 6s 7
mph
1024.5mb 56f 56f
Wed 07/23 11:50pm 4ft 9s 6s 4 7 mph 1024.4mb 56f 56f
10:50pm 3.5ft 8s 6s 4
mph
1024.2mb 56f 56f
9:50pm 4ft 8s 7s 4 7 mph 1024mb 56f 57f
8:50pm 3.5ft 8s 6s 7
mph
1023.9mb 57f 57f
7:50pm 3.5ft 8s 7s 7 9 mph 1023.8mb 56f 57f
6:50pm 3.5ft 10s 7s 9
mph
1023.9mb 55f 57f
5:50pm 3.5ft 9s 7s 9
mph
1024mb 56f 56f
4:50pm 3.5ft 8s 7s 7 9 mph 1024.1mb 55f 56f
3:50pm 3ft 9s 6s 7 9 mph 1024.1mb 55f 56f
2:50pm 3ft 8s 7s 9
mph
1024mb 56f 57f
1:50pm 3ft 9s 6s 7
mph
1023.5mb 56f 56f
12:50pm 3ft 8s 6s 4 7 mph 1022.9mb 56f 57f
11:50am 3ft 9s 6s 7 9 mph 1022.5mb 55f 56f
10:50am 3ft 10s 6s 4
mph
1021.7mb 55f 56f
9:50am 2.5ft 9s 6s 7
mph
1021.1mb 55f 56f
8:50am 2.5ft 9s 6s 4
mph
1020.6mb 54f 55f
7:50am 2.5ft 10s 5s 9 11 mph 1020.2mb 54f 55f
6:50am 2.5ft 10s 5s 11
mph
1019.6mb 54f 55f
5:50am 2.5ft 10s 5s 11 13 mph 1019.2mb 53f 55f
4:50am 2.5ft 11s 5s 9 11 mph 1018.9mb 53f 54f
3:50am 2.5ft 9s 5s 11 13 mph 1018.9mb 52f 54f
2:50am 2.5ft 11s 5s 13
mph
1018.8mb 53f 54f
1:50am 2.5ft 9s 6s 9
mph
1019.1mb 53f 54f
12:50am 2.5ft 10s 5s 11
mph
1019.4mb 53f 54f
Tue 07/22 11:50pm 2.5ft 10s 6s 11 13 mph 1019.3mb 51f 53f
10:50pm 2.5ft 11s 6s 11 13 mph 1018.9mb 52f 54f
9:50pm 2.5ft 8s 6s 11 16 mph 1018.8mb 53f 54f
8:50pm 2.5ft 9s 7s 11 13 mph 1018.6mb 53f 54f
7:50pm 2.5ft 11s 7s 11
mph
1018.7mb 53f 54f
6:50pm 3ft 10s 8s 13 16 mph 1018.6mb 53f 54f
5:50pm 2.5ft 8s 8s 9 11 mph 1018.5mb 54f 53f
4:50pm 2.5ft 9s 8s 7 9 mph 1018.6mb 54f 54f
3:50pm 3.5ft 11s 8s 7
mph
1018.9mb 54f 54f
2:50pm 3.5ft 11s 8s 7
mph
1018.9mb 54f 54f
1:50pm 3.5ft 11s 8s 7
mph
1018.7mb 53f 53f
12:50pm 3.5ft 11s 8s 4
mph
1018.7mb 53f 53f
11:50am 3.5ft 9s 7s 4
mph
1018.8mb 52f 53f
10:50am 3.5ft 10s 8s 7
mph
1018.7mb 51f 53f
9:50am 3.5ft 11s 7s 4 7 mph 1018.5mb 52f 53f
8:50am 3.5ft 10s 7s 2 4 mph 1018.5mb 52f 53f
7:50am 3.5ft 9s 7s  -  2 mph 1017.9mb 52f 52f
6:50am 4ft 10s 7s 4
mph
1017.7mb 52f 52f
5:50am 3.5ft 11s 7s 4 7 mph 1017.6mb 52f 52f
4:50am 4ft 10s 7s 7
mph
1017.6mb 52f 52f
3:50am 4.5ft 9s 7s 4
mph
1017.7mb 52f 52f
2:50am 4.5ft 10s 8s 7 9 mph 1017.9mb 52f 53f
1:50am 4ft 10s 8s 9
mph
1017.9mb 52f 53f
12:50am 4.5ft 9s 7s 7 9 mph 1017.8mb 52f 53f
Mon 07/21 11:50pm 4.5ft 10s 7s 4 7 mph 1018mb 52f 53f